createdAt,value
2023-02-25T08:31:17.131Z,58.68
2023-02-25T08:33:49.852Z,60.39
2023-02-25T08:36:23.760Z,66.68
2023-02-25T08:38:53.113Z,69.02
2023-02-25T08:41:22.868Z,67.50
2023-02-25T08:43:55.946Z,66.58
2023-02-25T08:46:27.006Z,63.64
2023-02-25T08:48:56.109Z,60.64
2023-02-25T08:51:34.502Z,57.97
2023-02-25T08:54:08.255Z,60.20
2023-02-25T08:56:37.123Z,66.36
2023-02-25T08:59:06.335Z,66.77
2023-02-25T09:01:46.514Z,64.69
2023-02-25T09:04:21.679Z,63.77
2023-02-25T09:06:52.898Z,64.32
2023-02-25T09:09:22.204Z,62.02
2023-02-25T09:11:50.532Z,58.24
2023-02-25T09:14:19.152Z,58.41
2023-02-25T09:16:47.681Z,61.46
2023-02-25T09:19:18.163Z,67.36
2023-02-25T09:21:48.408Z,69.17
2023-02-25T09:24:17.885Z,72.72
2023-02-25T09:26:47.105Z,67.25
2023-02-25T09:29:15.466Z,61.71
2023-02-25T09:31:43.733Z,57.30
2023-02-25T09:34:15.926Z,58.43
2023-02-25T09:36:44.276Z,62.18
2023-02-25T09:39:13.486Z,67.39
2023-02-25T09:41:54.625Z,67.26
2023-02-25T09:44:27.128Z,63.85
2023-02-25T09:47:34.135Z,59.57
2023-02-25T09:50:47.946Z,59.01
2023-02-25T09:53:17.755Z,62.27
2023-02-25T09:55:51.685Z,68.64
2023-02-25T09:58:42.392Z,67.99
2023-02-25T10:01:10.540Z,63.75
2023-02-25T10:03:47.528Z,58.76
2023-02-25T10:06:48.356Z,57.65
2023-02-25T10:09:48.196Z,62.26
2023-02-25T10:12:22.078Z,68.00
2023-02-25T10:15:19.246Z,66.62
2023-02-25T10:18:11.485Z,62.47
2023-02-25T10:20:44.066Z,57.96
2023-02-25T10:23:15.185Z,58.25
2023-02-25T10:25:57.077Z,61.28
2023-02-25T10:28:25.577Z,66.41
2023-02-25T10:31:00.507Z,64.26
2023-02-25T10:33:34.499Z,63.48
2023-02-25T10:36:16.378Z,61.62
2023-02-25T10:38:52.251Z,59.91
2023-02-25T10:41:23.132Z,56.77
2023-02-25T10:43:52.681Z,56.83
2023-02-25T10:46:43.892Z,62.04
2023-02-25T10:49:21.096Z,67.19
2023-02-25T10:52:01.441Z,64.24
2023-02-25T10:54:31.761Z,61.42
2023-02-25T10:57:02.522Z,57.96
2023-02-25T10:59:40.268Z,58.51
2023-02-25T11:02:31.734Z,61.44
2023-02-25T11:05:00.401Z,67.86
2023-02-25T11:07:33.278Z,68.47
2023-02-25T11:10:09.505Z,64.35
2023-02-25T11:12:46.561Z,64.21
2023-02-25T11:15:51.263Z,58.51
2023-02-25T11:18:29.963Z,57.06
2023-02-25T11:21:01.284Z,60.57
2023-02-25T11:23:44.636Z,65.97
2023-02-25T11:26:28.080Z,68.58
2023-02-25T11:28:59.614Z,64.64
2023-02-25T11:31:36.369Z,62.44
2023-02-25T11:34:12.956Z,60.42
2023-02-25T11:36:41.341Z,58.11
2023-02-25T11:39:23.024Z,58.15
2023-02-25T11:41:54.380Z,61.10
2023-02-25T11:44:32.211Z,67.23
2023-02-25T11:47:09.246Z,68.18
2023-02-25T11:49:49.748Z,62.81
2023-02-25T11:52:44.403Z,62.25
2023-02-25T11:55:25.986Z,57.45
2023-02-25T11:58:30.918Z,58.73
2023-02-25T12:01:05.049Z,64.57
2023-02-25T12:03:43.837Z,64.46
2023-02-25T12:06:44.483Z,63.03
2023-02-25T12:09:37.641Z,63.27
2023-02-25T12:12:05.712Z,59.46
2023-02-25T12:14:45.864Z,57.05
2023-02-25T12:17:55.817Z,59.31
2023-02-25T12:20:51.023Z,66.07
2023-02-25T12:23:45.363Z,65.67
2023-02-25T12:26:51.979Z,64.44
2023-02-25T12:29:43.909Z,58.12
2023-02-25T12:32:20.702Z,56.49
2023-02-25T12:35:07.398Z,59.07
2023-02-25T12:38:00.342Z,66.02
2023-02-25T12:40:49.713Z,65.26
2023-02-25T12:43:48.914Z,64.31
2023-02-25T12:46:22.493Z,63.04
2023-02-25T12:48:59.899Z,58.27
2023-02-25T12:52:05.285Z,56.49
2023-02-25T12:54:45.706Z,59.08
2023-02-25T12:57:34.049Z,66.68
2023-02-25T13:00:36.126Z,67.93
2023-02-25T13:03:33.354Z,60.96
2023-02-25T13:06:21.005Z,58.18
2023-02-25T13:09:14.493Z,55.64
2023-02-25T13:15:14.366Z,65.52
2023-02-25T13:18:07.962Z,66.03
2023-02-25T13:21:05.841Z,63.10
2023-02-25T13:24:19.364Z,58.49
2023-02-25T13:26:53.476Z,57.29
2023-02-25T13:29:27.608Z,60.64
2023-02-25T13:32:28.792Z,66.70
2023-02-25T13:35:45.245Z,68.19
2023-02-25T13:38:31.968Z,61.09
2023-02-25T13:41:19.301Z,57.11
2023-02-25T13:44:17.863Z,58.70
2023-02-25T13:46:52.767Z,65.89
2023-02-25T13:49:48.705Z,65.90
2023-02-25T13:52:28.242Z,62.64
2023-02-25T13:55:34.406Z,57.80
2023-02-25T13:58:27.356Z,57.05
2023-02-25T14:01:01.729Z,58.09
2023-02-25T14:03:34.246Z,64.76
2023-02-25T14:06:11.846Z,67.46
2023-02-25T14:09:06.865Z,63.24
2023-02-25T14:12:11.588Z,62.10
2023-02-25T14:14:40.463Z,56.25
2023-02-25T14:17:28.200Z,58.23
2023-02-25T14:20:11.931Z,60.92
2023-02-25T14:22:56.388Z,67.03
2023-02-25T14:25:58.350Z,67.99
2023-02-25T14:28:32.358Z,63.63
2023-02-25T14:31:33.638Z,62.30
2023-02-25T14:34:08.125Z,58.09
2023-02-25T14:36:36.296Z,57.64
2023-02-25T14:39:33.142Z,60.24
2023-02-25T14:42:45.855Z,67.27
2023-02-25T14:45:21.515Z,63.98
2023-02-25T14:47:55.822Z,61.39
2023-02-25T14:50:42.530Z,61.78
2023-02-25T14:53:35.278Z,59.99
2023-02-25T14:56:41.333Z,56.09
2023-02-25T14:59:38.893Z,59.04
2023-02-25T15:02:20.090Z,66.02
2023-02-25T15:05:25.923Z,65.45
2023-02-25T15:08:32.019Z,63.49
2023-02-25T15:11:33.743Z,62.59
2023-02-25T15:14:02.137Z,61.21
2023-02-25T15:16:36.031Z,56.34
2023-02-25T15:19:17.617Z,56.80
2023-02-25T15:21:49.167Z,59.15
2023-02-25T15:24:26.247Z,65.20
2023-02-25T15:26:56.159Z,66.87
2023-02-25T15:29:33.345Z,63.77
2023-02-25T15:32:11.330Z,61.71
2023-02-25T15:35:03.487Z,58.11
2023-02-25T15:37:57.865Z,57.25
2023-02-25T15:40:31.983Z,60.44
2023-02-25T15:43:01.564Z,66.88
2023-02-25T15:45:32.627Z,68.21
2023-02-25T15:48:12.782Z,63.78
2023-02-25T15:50:43.921Z,62.44
2023-02-25T15:53:24.894Z,58.62
2023-02-25T15:56:05.044Z,57.85
2023-02-25T15:58:33.226Z,60.03
2023-02-25T16:01:07.290Z,66.13
2023-02-25T16:03:35.509Z,68.82
2023-02-25T16:06:22.502Z,65.44
2023-02-25T16:08:53.859Z,63.26
2023-02-25T16:11:45.072Z,55.90
2023-02-25T16:14:36.491Z,57.49
2023-02-25T16:17:14.904Z,59.97
2023-02-25T16:19:44.099Z,67.73
2023-02-25T16:22:19.522Z,68.98
2023-02-25T16:24:53.459Z,66.42
2023-02-25T16:27:33.602Z,64.77
2023-02-25T16:30:16.523Z,63.58
2023-02-25T16:33:08.452Z,61.45
2023-02-25T16:35:57.626Z,56.73
2023-02-25T16:38:38.685Z,55.43
2023-02-25T16:41:07.068Z,58.60
2023-02-25T16:43:37.642Z,64.74
2023-02-25T16:46:13.005Z,67.47
2023-02-25T16:48:57.592Z,66.22
2023-02-25T16:51:32.117Z,63.01
2023-02-25T16:54:07.738Z,60.74
2023-02-25T16:56:36.650Z,57.07
2023-02-25T16:59:04.932Z,56.74
2023-02-25T17:01:35.342Z,58.95
2023-02-25T17:04:09.661Z,65.30
2023-02-25T17:06:38.549Z,65.88
2023-02-25T17:09:06.926Z,62.93
2023-02-25T17:11:35.203Z,62.41
2023-02-25T17:14:04.706Z,61.03
2023-02-25T17:16:38.342Z,57.94
2023-02-25T17:19:09.478Z,58.12
2023-02-25T17:21:39.875Z,60.01
2023-02-25T17:24:13.623Z,66.21
2023-02-25T17:26:44.039Z,68.12
2023-02-25T17:29:15.020Z,66.48
2023-02-25T17:31:46.478Z,63.12
2023-02-25T17:34:17.938Z,60.73
2023-02-25T17:36:47.718Z,57.47
2023-02-25T17:39:18.584Z,57.01
2023-02-25T17:41:47.780Z,60.27
2023-02-25T17:44:39.231Z,65.49
2023-02-25T17:47:10.140Z,67.76
2023-02-25T17:49:38.615Z,64.51
2023-02-25T17:52:08.618Z,62.19
2023-02-25T17:54:38.244Z,61.36
2023-02-25T17:57:10.061Z,58.39
2023-02-25T17:59:41.125Z,56.70
2023-02-25T18:02:37.377Z,57.02
2023-02-25T18:05:18.658Z,64.79
2023-02-25T18:08:02.797Z,67.93
2023-02-25T18:10:33.857Z,63.91
2023-02-25T18:13:04.173Z,61.63
2023-02-25T18:15:33.517Z,57.18
2023-02-25T18:18:07.501Z,55.94
2023-02-25T18:20:41.059Z,58.50
2023-02-25T18:23:25.208Z,59.58
2023-02-25T18:26:12.241Z,66.58
2023-02-25T18:28:40.814Z,69.26
2023-02-25T18:31:09.989Z,66.12
2023-02-25T18:33:38.272Z,63.39
2023-02-25T18:36:08.002Z,62.36
2023-02-25T18:38:41.983Z,57.32
2023-02-25T18:41:12.109Z,54.95
2023-02-25T18:43:42.217Z,56.39
2023-02-25T18:46:10.420Z,57.70
2023-02-25T18:48:39.084Z,63.15
2023-02-25T18:51:13.292Z,67.23
2023-02-25T18:53:42.181Z,65.84
2023-02-25T18:56:15.992Z,63.24
2023-02-25T18:58:44.765Z,61.98
2023-02-25T19:01:24.284Z,57.51
2023-02-25T19:03:54.094Z,54.21
2023-02-25T19:06:22.790Z,55.28
2023-02-25T19:08:51.184Z,57.08
2023-02-25T19:11:23.552Z,58.02
2023-02-25T19:13:52.852Z,64.82
2023-02-25T19:16:23.474Z,69.25
2023-02-25T19:18:52.068Z,65.73
2023-02-25T19:21:22.186Z,63.67
2023-02-25T19:23:51.796Z,58.45
2023-02-25T19:26:20.576Z,55.30
2023-02-25T19:28:48.857Z,56.20
2023-02-25T19:31:18.080Z,57.72
2023-02-25T19:33:46.424Z,64.26
2023-02-25T19:36:14.598Z,68.70
2023-02-25T19:38:42.869Z,66.13
2023-02-25T19:41:13.399Z,64.26
2023-02-25T19:43:41.668Z,61.62
2023-02-25T19:46:10.570Z,57.16
2023-02-25T19:48:38.734Z,53.77
2023-02-25T19:51:08.449Z,54.11
2023-02-25T19:53:37.019Z,55.07
2023-02-25T19:56:08.030Z,57.09
2023-02-25T19:58:36.232Z,58.64
2023-02-25T20:01:09.074Z,64.57
2023-02-25T20:03:37.295Z,70.26
2023-02-25T20:06:12.204Z,67.80
2023-02-25T20:08:41.624Z,63.55
2023-02-25T20:11:10.517Z,57.18
2023-02-25T20:13:38.883Z,54.26
2023-02-25T20:16:09.364Z,55.60
2023-02-25T20:18:37.717Z,55.79
2023-02-25T20:21:06.460Z,54.86
2023-02-25T20:23:34.763Z,58.11
2023-02-25T20:26:07.221Z,65.54
2023-02-25T20:28:36.235Z,69.84
2023-02-25T20:31:06.436Z,67.13
2023-02-25T20:33:35.125Z,64.34
2023-02-25T20:36:14.461Z,62.43
2023-02-25T20:38:53.480Z,55.37
2023-02-25T20:41:21.858Z,52.15
2023-02-25T20:43:50.234Z,53.50
2023-02-25T20:46:28.156Z,54.34
2023-02-25T20:48:56.720Z,57.02
2023-02-25T20:51:25.406Z,58.60
2023-02-25T20:53:54.291Z,64.52
2023-02-25T20:56:24.943Z,69.13
2023-02-25T20:58:54.955Z,67.07
2023-02-25T21:01:23.259Z,63.58
2023-02-25T21:03:51.745Z,58.84
2023-02-25T21:06:25.842Z,54.13
2023-02-25T21:08:54.789Z,54.50
2023-02-25T21:11:27.123Z,55.65
2023-02-25T21:13:55.544Z,57.64
2023-02-25T21:16:24.445Z,59.90
2023-02-25T21:18:53.108Z,64.86
2023-02-25T21:21:21.805Z,70.63
2023-02-25T21:23:52.860Z,68.80
2023-02-25T21:26:21.140Z,65.76
2023-02-25T21:28:49.390Z,63.67
2023-02-25T21:31:17.670Z,58.39
2023-02-25T21:33:46.020Z,53.47
2023-02-25T21:36:14.409Z,54.28
2023-02-25T21:38:42.687Z,56.29
2023-02-25T21:41:13.654Z,57.37
2023-02-25T21:43:42.833Z,59.14
2023-02-25T21:46:13.385Z,66.17
2023-02-25T21:48:42.029Z,71.51
2023-02-25T21:51:22.184Z,71.62
2023-02-25T21:53:58.548Z,65.27
2023-02-25T21:56:28.067Z,62.56
2023-02-25T21:59:01.150Z,57.02
2023-02-25T22:01:31.598Z,54.05
2023-02-25T22:04:00.099Z,54.24
2023-02-25T22:06:28.906Z,57.01
2023-02-25T22:08:58.143Z,58.05
2023-02-25T22:11:32.031Z,60.03
2023-02-25T22:14:02.310Z,65.88
2023-02-25T22:16:30.432Z,70.19
2023-02-25T22:18:59.010Z,65.07
2023-02-25T22:21:31.482Z,64.62
2023-02-25T22:24:01.928Z,63.00
2023-02-25T22:26:32.331Z,57.54
2023-02-25T22:29:02.984Z,53.46
2023-02-25T22:31:32.766Z,54.31
2023-02-25T22:34:01.562Z,55.74
2023-02-25T22:36:29.793Z,58.40
2023-02-25T22:38:58.113Z,58.77
2023-02-25T22:41:28.631Z,65.31
2023-02-25T22:44:00.499Z,70.47
2023-02-25T22:46:31.324Z,67.42
2023-02-25T22:48:59.924Z,65.76
2023-02-25T22:51:30.534Z,63.63
2023-02-25T22:53:58.831Z,58.77
2023-02-25T22:56:27.742Z,53.85
2023-02-25T22:58:56.187Z,54.29
2023-02-25T23:01:25.546Z,55.25
2023-02-25T23:03:54.785Z,58.22
2023-02-25T23:06:34.084Z,58.14
2023-02-25T23:09:10.279Z,64.24
2023-02-25T23:11:40.401Z,69.45
2023-02-25T23:14:08.774Z,67.36
2023-02-25T23:16:42.400Z,64.29
2023-02-25T23:19:14.216Z,61.52
2023-02-25T23:21:42.629Z,56.20
2023-02-25T23:24:16.462Z,52.99
2023-02-25T23:26:47.690Z,53.58
2023-02-25T23:29:15.948Z,55.00
2023-02-25T23:31:47.235Z,56.36
2023-02-25T23:34:23.432Z,57.43
2023-02-25T23:36:56.082Z,63.48
2023-02-25T23:39:24.758Z,69.42
2023-02-25T23:41:53.070Z,67.48
2023-02-25T23:44:21.564Z,64.83
2023-02-25T23:46:49.728Z,62.30
2023-02-25T23:49:18.098Z,57.92
2023-02-25T23:51:47.408Z,54.04
2023-02-25T23:54:18.266Z,54.30
2023-02-25T23:56:46.410Z,55.66
2023-02-25T23:59:15.094Z,55.90
